createdAt,value
2023-09-04T00:00:20.747Z,13.00
2023-09-04T00:02:47.724Z,12.90
2023-09-04T00:05:14.723Z,12.90
2023-09-04T00:07:41.599Z,12.90
2023-09-04T00:10:08.851Z,12.90
2023-09-04T00:12:35.741Z,12.80
2023-09-04T00:15:02.797Z,12.80
2023-09-04T00:17:30.341Z,12.70
2023-09-04T00:19:57.974Z,12.80
2023-09-04T00:22:25.581Z,12.80
2023-09-04T00:24:52.498Z,12.70
2023-09-04T00:27:19.580Z,12.70
2023-09-04T00:29:46.858Z,12.70
2023-09-04T00:32:13.765Z,12.70
2023-09-04T00:34:40.665Z,12.70
2023-09-04T00:37:07.560Z,12.70
2023-09-04T00:39:34.463Z,12.70
2023-09-04T00:42:01.358Z,12.70
2023-09-04T00:44:28.227Z,12.80
2023-09-04T00:46:55.417Z,12.80
2023-09-04T00:49:22.669Z,12.80
2023-09-04T00:51:50.114Z,12.90
2023-09-04T00:54:17.934Z,12.80
2023-09-04T00:56:45.010Z,12.70
2023-09-04T00:59:11.919Z,12.70
2023-09-04T01:01:39.019Z,12.70
2023-09-04T01:04:06.184Z,12.60
2023-09-04T01:06:33.091Z,12.70
2023-09-04T01:09:00.058Z,12.60
2023-09-04T01:11:54.664Z,12.60
2023-09-04T01:14:22.286Z,12.60
2023-09-04T01:16:49.515Z,12.60
2023-09-04T01:19:16.711Z,12.50
2023-09-04T01:21:43.666Z,12.60
2023-09-04T01:24:10.590Z,12.60
2023-09-04T01:27:03.148Z,12.70
2023-09-04T01:29:53.994Z,12.60
2023-09-04T01:32:52.929Z,12.70
2023-09-04T01:35:23.054Z,12.70
2023-09-04T01:37:50.985Z,12.70
2023-09-04T01:40:17.918Z,12.60
2023-09-04T01:42:44.809Z,12.70
2023-09-04T01:45:11.793Z,12.60
2023-09-04T01:47:38.691Z,12.70
2023-09-04T01:50:06.103Z,12.60
2023-09-04T01:52:33.039Z,12.70
2023-09-04T01:55:00.026Z,12.60
2023-09-04T01:57:26.899Z,12.50
2023-09-04T01:59:53.813Z,12.60
2023-09-04T02:02:20.695Z,12.60
2023-09-04T02:04:47.597Z,12.60
2023-09-04T02:07:14.501Z,12.70
2023-09-04T02:09:41.421Z,12.60
2023-09-04T02:12:08.419Z,12.60
2023-09-04T02:14:35.303Z,12.70
2023-09-04T02:17:02.189Z,12.60
2023-09-04T02:19:29.063Z,12.60
2023-09-04T02:21:55.979Z,12.60
2023-09-04T02:24:22.860Z,12.60
2023-09-04T02:26:49.878Z,12.60
2023-09-04T02:29:16.774Z,12.70
2023-09-04T02:31:43.703Z,12.70
2023-09-04T02:34:10.604Z,12.70
2023-09-04T02:36:37.495Z,12.80
2023-09-04T02:39:04.478Z,12.70
2023-09-04T02:41:31.398Z,12.80
2023-09-04T02:43:58.283Z,12.80
2023-09-04T02:46:25.239Z,12.80
2023-09-04T02:48:52.232Z,12.70
2023-09-04T02:51:19.110Z,12.70
2023-09-04T02:53:45.987Z,12.70
2023-09-04T02:56:12.884Z,12.70
2023-09-04T02:58:39.757Z,12.70
2023-09-04T03:01:06.698Z,12.70
2023-09-04T03:03:33.654Z,12.70
2023-09-04T03:06:12.800Z,12.80
2023-09-04T03:08:39.901Z,12.80
2023-09-04T03:11:10.826Z,12.80
2023-09-04T03:13:39.013Z,12.80
2023-09-04T03:16:06.823Z,12.80
2023-09-04T03:18:34.992Z,12.70
2023-09-04T03:21:05.969Z,12.70
2023-09-04T03:23:32.880Z,12.70
2023-09-04T03:25:59.800Z,12.70
2023-09-04T03:28:26.857Z,12.70
2023-09-04T03:30:53.829Z,12.60
2023-09-04T03:33:20.961Z,12.70
2023-09-04T03:35:47.892Z,12.70
2023-09-04T03:38:14.766Z,12.70
2023-09-04T03:40:41.630Z,12.60
2023-09-04T03:43:08.549Z,12.60
2023-09-04T03:45:36.289Z,12.60
2023-09-04T03:48:03.452Z,12.50
2023-09-04T03:50:30.448Z,12.50
2023-09-04T03:52:57.357Z,12.50
2023-09-04T03:55:24.236Z,12.50
2023-09-04T03:57:51.335Z,12.50
2023-09-04T04:00:19.139Z,12.50
2023-09-04T04:05:16.310Z,12.50
2023-09-04T04:07:43.462Z,12.50
2023-09-04T04:10:10.565Z,12.40
2023-09-04T04:12:37.912Z,12.40
2023-09-04T04:15:06.448Z,12.40
2023-09-04T04:17:34.536Z,12.40
2023-09-04T04:20:01.807Z,12.40
2023-09-04T04:22:28.650Z,12.30
2023-09-04T04:24:55.576Z,12.30
2023-09-04T04:27:22.994Z,12.30
2023-09-04T04:29:50.801Z,12.30
2023-09-04T04:32:17.692Z,12.40
2023-09-04T04:34:44.637Z,12.40
2023-09-04T04:37:11.533Z,12.40
2023-09-04T04:39:38.405Z,12.40
2023-09-04T04:42:05.645Z,12.40
2023-09-04T04:44:32.551Z,12.60
2023-09-04T04:46:59.449Z,12.50
2023-09-04T04:49:26.370Z,12.60
2023-09-04T04:51:53.265Z,12.60
2023-09-04T04:54:20.311Z,12.50
2023-09-04T04:56:50.547Z,12.50
2023-09-04T04:59:18.053Z,12.50
2023-09-04T05:01:45.271Z,12.60
2023-09-04T05:04:12.229Z,12.70
2023-09-04T05:06:39.813Z,12.70
2023-09-04T05:09:06.710Z,12.70
2023-09-04T05:11:36.329Z,12.60
2023-09-04T05:14:03.671Z,12.60
2023-09-04T05:16:30.647Z,12.60
2023-09-04T05:18:57.565Z,12.70
2023-09-04T05:21:24.527Z,12.70
2023-09-04T05:23:51.899Z,12.70
2023-09-04T05:26:19.017Z,12.80
2023-09-04T05:28:45.896Z,12.80
2023-09-04T05:31:12.880Z,12.80
2023-09-04T05:33:39.960Z,13.00
2023-09-04T05:36:06.839Z,12.90
2023-09-04T05:38:33.744Z,12.90
2023-09-04T05:41:00.691Z,13.00
2023-09-04T05:43:27.676Z,13.00
2023-09-04T05:45:54.613Z,13.10
2023-09-04T05:48:21.842Z,13.10
2023-09-04T05:50:49.625Z,13.10
2023-09-04T05:53:16.741Z,13.30
2023-09-04T05:55:43.636Z,13.30
2023-09-04T05:58:11.447Z,13.40
2023-09-04T06:00:38.302Z,13.40
2023-09-04T06:03:05.433Z,13.50
2023-09-04T06:05:32.330Z,13.60
2023-09-04T06:07:59.240Z,13.60
2023-09-04T06:10:26.179Z,13.70
2023-09-04T06:12:53.089Z,13.80
2023-09-04T06:15:20.078Z,14.00
2023-09-04T06:17:46.975Z,14.00
2023-09-04T06:20:14.001Z,14.20
2023-09-04T06:22:40.899Z,14.30
2023-09-04T06:25:08.035Z,14.40
2023-09-04T06:27:34.990Z,14.50
2023-09-04T06:30:03.111Z,14.60
2023-09-04T06:32:30.196Z,14.80
2023-09-04T06:34:57.113Z,15.00
2023-09-04T06:37:24.081Z,15.00
2023-09-04T06:39:50.969Z,15.00
2023-09-04T06:42:18.067Z,15.20
2023-09-04T06:44:45.074Z,15.30
2023-09-04T06:47:12.016Z,15.30
2023-09-04T06:49:38.920Z,15.40
2023-09-04T06:52:05.977Z,15.50
2023-09-04T06:54:32.912Z,15.60
2023-09-04T06:56:59.802Z,15.60
2023-09-04T06:59:26.717Z,15.70
2023-09-04T07:01:53.725Z,15.80
2023-09-04T07:04:20.650Z,15.90
2023-09-04T07:06:47.528Z,16.00
2023-09-04T07:09:14.455Z,16.20
2023-09-04T07:11:41.323Z,16.20
2023-09-04T07:14:08.235Z,16.30
2023-09-04T07:16:38.797Z,16.30
2023-09-04T07:19:11.337Z,16.50
2023-09-04T07:21:38.291Z,16.60
2023-09-04T07:24:05.602Z,16.70
2023-09-04T07:26:32.514Z,16.70
2023-09-04T07:28:59.394Z,16.70
2023-09-04T07:31:26.445Z,16.90
2023-09-04T07:33:53.348Z,17.00
2023-09-04T07:36:20.261Z,17.10
2023-09-04T07:38:48.194Z,17.10
2023-09-04T07:41:15.254Z,17.20
2023-09-04T07:43:42.140Z,17.30
2023-09-04T07:46:09.150Z,17.40
2023-09-04T07:48:36.138Z,17.50
2023-09-04T07:51:13.461Z,17.60
2023-09-04T07:53:46.716Z,17.60
2023-09-04T07:56:13.760Z,17.70
2023-09-04T07:58:40.715Z,17.90
2023-09-04T08:01:12.248Z,17.90
2023-09-04T08:03:39.214Z,18.10
2023-09-04T08:06:06.147Z,18.20
2023-09-04T08:08:33.027Z,18.30
2023-09-04T08:10:59.918Z,18.50
2023-09-04T08:13:27.100Z,18.60
2023-09-04T08:15:54.273Z,18.90
2023-09-04T08:18:21.213Z,19.20
2023-09-04T08:20:48.081Z,20.60
2023-09-04T08:23:15.022Z,23.10
2023-09-04T08:25:41.925Z,24.10
2023-09-04T08:28:08.836Z,25.20
2023-09-04T08:30:36.637Z,26.00
2023-09-04T08:33:03.895Z,26.30
2023-09-04T08:35:30.885Z,27.30
2023-09-04T08:37:58.060Z,27.70
2023-09-04T08:40:25.005Z,28.30
2023-09-04T08:42:53.109Z,28.30
2023-09-04T08:45:21.405Z,28.10
2023-09-04T08:47:49.122Z,28.40
2023-09-04T08:52:57.797Z,28.50
2023-09-04T08:55:25.322Z,28.60
2023-09-04T08:57:52.200Z,28.90
2023-09-04T09:00:19.281Z,29.10
2023-09-04T09:02:47.104Z,29.10
2023-09-04T09:05:17.336Z,28.90
2023-09-04T09:07:44.967Z,28.10
2023-09-04T09:10:17.597Z,28.40
2023-09-04T09:12:44.557Z,27.80
2023-09-04T09:15:11.930Z,28.10
2023-09-04T09:17:55.690Z,27.80
2023-09-04T09:20:41.819Z,27.30
2023-09-04T09:23:08.803Z,27.50
2023-09-04T09:25:36.990Z,27.30
2023-09-04T09:28:06.859Z,27.00
2023-09-04T09:30:38.519Z,26.70
2023-09-04T09:33:10.545Z,26.60
2023-09-04T09:35:42.707Z,26.10
2023-09-04T09:38:10.457Z,26.20
2023-09-04T09:40:38.404Z,25.80
2023-09-04T09:43:05.367Z,26.30
2023-09-04T09:45:36.493Z,26.10
2023-09-04T09:48:07.725Z,26.10
2023-09-04T09:50:37.366Z,26.40
2023-09-04T09:53:05.073Z,26.70
2023-09-04T09:55:34.934Z,27.30
2023-09-04T09:58:02.329Z,26.60
2023-09-04T10:00:30.338Z,26.60
2023-09-04T10:02:58.961Z,26.60
2023-09-04T10:05:27.417Z,27.10
2023-09-04T10:08:02.218Z,26.60
2023-09-04T10:10:38.025Z,27.00
2023-09-04T10:13:20.522Z,27.20
2023-09-04T10:15:51.385Z,27.60
2023-09-04T10:18:30.897Z,28.00
2023-09-04T10:21:00.144Z,27.70
2023-09-04T10:23:36.303Z,27.90
2023-09-04T10:26:08.555Z,27.80
2023-09-04T10:28:45.328Z,28.00
2023-09-04T10:31:13.859Z,27.90
2023-09-04T10:33:41.912Z,27.20
2023-09-04T10:36:09.868Z,27.80
2023-09-04T10:38:38.272Z,28.10
2023-09-04T10:41:06.749Z,27.90
2023-09-04T10:43:40.612Z,28.70
2023-09-04T10:46:09.544Z,29.00
2023-09-04T10:48:53.265Z,28.50
2023-09-04T10:51:26.906Z,29.30
2023-09-04T10:53:53.872Z,27.70
2023-09-04T10:56:20.764Z,28.50
2023-09-04T10:59:05.829Z,28.20
2023-09-04T11:01:40.110Z,29.00
2023-09-04T11:04:09.090Z,29.30
2023-09-04T11:06:38.451Z,29.60
2023-09-04T11:09:06.504Z,29.40
2023-09-04T11:11:33.828Z,29.60
2023-09-04T11:14:03.114Z,28.40
2023-09-04T11:16:43.616Z,28.60
2023-09-04T11:19:17.545Z,29.10
2023-09-04T11:21:46.461Z,29.30
2023-09-04T11:24:13.566Z,30.30
2023-09-04T11:26:40.524Z,29.80
2023-09-04T11:29:07.532Z,30.20
2023-09-04T11:31:35.060Z,30.00
2023-09-04T11:34:03.977Z,30.50
2023-09-04T11:36:31.407Z,30.50
2023-09-04T11:39:09.474Z,30.70
2023-09-04T11:41:36.544Z,31.00
2023-09-04T11:44:06.279Z,31.20
2023-09-04T11:46:34.520Z,30.90
2023-09-04T11:49:02.803Z,30.60
2023-09-04T11:51:29.756Z,31.00
2023-09-04T11:53:56.659Z,30.90
2023-09-04T11:56:23.597Z,31.10
2023-09-04T11:58:50.486Z,31.10
2023-09-04T12:01:17.480Z,30.30
2023-09-04T12:03:44.496Z,31.10
2023-09-04T12:06:11.857Z,30.30
2023-09-04T12:08:38.809Z,30.70
2023-09-04T12:11:08.544Z,31.10
2023-09-04T12:13:36.742Z,31.00
2023-09-04T12:16:08.307Z,30.80
2023-09-04T12:18:36.363Z,30.80
2023-09-04T12:21:07.535Z,31.00
2023-09-04T12:23:43.310Z,30.80
2023-09-04T12:26:12.681Z,31.00
2023-09-04T12:28:43.178Z,30.70
2023-09-04T12:31:14.890Z,30.00
2023-09-04T12:33:43.722Z,30.60
2023-09-04T12:36:12.437Z,30.60
2023-09-04T12:38:40.236Z,30.40
2023-09-04T12:41:07.259Z,30.50
2023-09-04T12:43:35.254Z,30.30
2023-09-04T12:46:02.712Z,30.40
2023-09-04T12:48:31.077Z,30.00
2023-09-04T12:50:58.100Z,30.00
2023-09-04T12:53:25.563Z,30.00
2023-09-04T12:55:52.753Z,29.60
2023-09-04T12:58:19.798Z,29.30
2023-09-04T13:00:47.161Z,29.00
2023-09-04T13:03:14.268Z,29.10
2023-09-04T13:05:41.389Z,28.60
2023-09-04T13:08:08.309Z,28.70
2023-09-04T13:10:35.487Z,28.70
2023-09-04T13:13:02.651Z,28.50
2023-09-04T13:15:29.944Z,28.40
2023-09-04T13:17:57.167Z,28.40
2023-09-04T13:20:24.784Z,28.20
2023-09-04T13:22:51.740Z,28.00
2023-09-04T13:25:18.670Z,28.00
2023-09-04T13:27:45.556Z,28.10
2023-09-04T13:30:12.621Z,28.00
2023-09-04T13:32:39.924Z,28.10
2023-09-04T13:35:07.226Z,28.00
2023-09-04T13:37:34.372Z,27.80
2023-09-04T13:40:01.358Z,27.80
2023-09-04T13:42:28.262Z,27.70
2023-09-04T13:44:55.141Z,27.90
2023-09-04T13:47:22.125Z,28.00
2023-09-04T13:49:49.138Z,28.00
2023-09-04T13:52:16.104Z,27.90
2023-09-04T13:54:43.412Z,27.90
2023-09-04T13:57:10.396Z,27.70
2023-09-04T13:59:37.320Z,27.90
2023-09-04T14:02:04.568Z,27.40
2023-09-04T14:04:31.536Z,27.90
2023-09-04T14:06:58.453Z,28.20
2023-09-04T14:09:25.384Z,28.40
2023-09-04T14:11:52.324Z,28.70
2023-09-04T14:14:19.362Z,29.20
2023-09-04T14:16:46.249Z,29.40
2023-09-04T14:19:13.151Z,29.40
2023-09-04T14:21:40.071Z,29.40
2023-09-04T14:24:07.481Z,29.80
2023-09-04T14:26:34.440Z,29.60
2023-09-04T14:29:02.041Z,29.60
2023-09-04T14:31:29.903Z,30.00
2023-09-04T14:33:56.829Z,30.30
2023-09-04T14:36:23.761Z,30.60
2023-09-04T14:38:50.700Z,30.70
2023-09-04T14:41:17.865Z,31.00
2023-09-04T14:43:45.423Z,30.90
2023-09-04T14:46:12.665Z,30.90
2023-09-04T14:48:39.859Z,31.00
2023-09-04T14:51:06.850Z,30.80
2023-09-04T14:53:33.744Z,30.60
2023-09-04T14:56:01.041Z,30.70
2023-09-04T14:58:28.261Z,30.40
2023-09-04T15:00:55.917Z,30.30
2023-09-04T15:03:22.910Z,30.40
2023-09-04T15:05:59.441Z,30.20
2023-09-04T15:08:28.967Z,30.10
2023-09-04T15:10:58.131Z,30.70
2023-09-04T15:13:25.319Z,30.60
2023-09-04T15:15:52.690Z,30.80
2023-09-04T15:18:19.633Z,31.00
2023-09-04T15:20:46.692Z,31.30
2023-09-04T15:23:13.582Z,31.40
2023-09-04T15:25:42.724Z,31.40
2023-09-04T15:28:09.816Z,31.80
2023-09-04T15:30:36.740Z,31.50
2023-09-04T15:33:03.983Z,31.70
2023-09-04T15:35:30.991Z,31.90
2023-09-04T15:37:57.864Z,31.70
2023-09-04T15:40:24.863Z,31.90
2023-09-04T15:42:51.735Z,31.80
2023-09-04T15:45:18.749Z,32.10
2023-09-04T15:47:45.718Z,31.70
2023-09-04T15:50:13.263Z,31.80
2023-09-04T15:52:40.190Z,32.10
2023-09-04T15:55:07.398Z,32.10
2023-09-04T15:57:34.324Z,32.00
2023-09-04T16:00:01.389Z,31.90
2023-09-04T16:02:29.560Z,32.20
2023-09-04T16:04:56.556Z,31.90
2023-09-04T16:07:23.527Z,32.00
2023-09-04T16:09:50.394Z,32.20
2023-09-04T16:12:17.312Z,32.20
2023-09-04T16:14:44.271Z,31.80
2023-09-04T16:17:11.260Z,32.00
2023-09-04T16:19:38.119Z,31.70
2023-09-04T16:22:05.084Z,31.00
2023-09-04T16:24:31.980Z,30.20
2023-09-04T16:26:58.928Z,29.20
2023-09-04T16:29:25.890Z,28.80
2023-09-04T16:31:52.788Z,28.30
2023-09-04T16:34:19.833Z,27.90
2023-09-04T16:36:46.711Z,27.40
2023-09-04T16:39:13.573Z,27.00
2023-09-04T16:41:40.482Z,26.70
2023-09-04T16:44:08.511Z,26.40
2023-09-04T16:46:36.272Z,25.90
2023-09-04T16:49:03.343Z,25.70
2023-09-04T16:51:34.499Z,24.90
2023-09-04T16:54:06.512Z,25.20
2023-09-04T16:56:33.514Z,24.80
2023-09-04T16:59:00.453Z,24.60
2023-09-04T17:01:27.894Z,24.50
2023-09-04T17:03:54.882Z,24.20
2023-09-04T17:06:22.055Z,24.00
2023-09-04T17:08:48.954Z,23.80
2023-09-04T17:11:15.900Z,23.50
2023-09-04T17:13:42.813Z,23.30
2023-09-04T17:16:09.819Z,23.00
2023-09-04T17:18:36.787Z,22.90
2023-09-04T17:21:03.717Z,22.70
2023-09-04T17:23:30.646Z,22.50
2023-09-04T17:26:01.760Z,22.30
2023-09-04T17:28:28.705Z,22.00
2023-09-04T17:30:55.574Z,21.70
2023-09-04T17:33:22.514Z,21.60
2023-09-04T17:35:49.667Z,21.40
2023-09-04T17:38:16.842Z,21.30
2023-09-04T17:40:43.763Z,21.10
2023-09-04T17:43:10.680Z,20.90
2023-09-04T17:45:37.609Z,20.70
2023-09-04T17:48:05.257Z,20.60
2023-09-04T17:50:32.300Z,20.40
2023-09-04T17:52:59.159Z,20.30
2023-09-04T17:55:26.085Z,20.20
2023-09-04T17:57:53.497Z,20.10
2023-09-04T18:00:21.283Z,19.90
2023-09-04T18:02:48.443Z,19.80
2023-09-04T18:05:15.645Z,19.60
2023-09-04T18:07:42.509Z,19.50
2023-09-04T18:10:09.998Z,19.30
2023-09-04T18:12:36.924Z,19.20
2023-09-04T18:15:04.164Z,19.10
2023-09-04T18:17:31.105Z,19.00
2023-09-04T18:19:57.989Z,18.80
2023-09-04T18:22:24.838Z,18.70
2023-09-04T18:24:51.786Z,18.60
2023-09-04T18:27:18.669Z,18.60
2023-09-04T18:29:45.575Z,18.40
2023-09-04T18:32:12.521Z,18.30
2023-09-04T18:34:39.413Z,18.20
2023-09-04T18:37:06.338Z,18.00
2023-09-04T18:39:33.259Z,17.90
2023-09-04T18:42:00.173Z,17.80
2023-09-04T18:44:27.286Z,17.80
2023-09-04T18:46:54.263Z,17.60
2023-09-04T18:49:21.178Z,17.70
2023-09-04T18:51:48.053Z,17.60
2023-09-04T18:54:15.005Z,17.40
2023-09-04T18:56:41.872Z,17.30
2023-09-04T18:59:08.779Z,17.20
2023-09-04T19:01:35.735Z,17.20
2023-09-04T19:04:02.665Z,17.10
2023-09-04T19:06:29.558Z,17.00
2023-09-04T19:08:56.479Z,17.00
2023-09-04T19:11:23.533Z,16.90
2023-09-04T19:13:50.519Z,16.80
2023-09-04T19:16:17.431Z,16.80
2023-09-04T19:18:44.433Z,16.70
2023-09-04T19:21:11.372Z,16.70
2023-09-04T19:23:38.296Z,16.50
2023-09-04T19:26:05.267Z,16.50
2023-09-04T19:28:44.415Z,16.40
2023-09-04T19:31:17.357Z,16.40
2023-09-04T19:33:44.254Z,16.40
2023-09-04T19:36:11.128Z,16.40
2023-09-04T19:38:38.042Z,17.10
2023-09-04T19:41:04.982Z,16.30
2023-09-04T19:43:31.937Z,16.30
2023-09-04T19:45:58.874Z,16.20
2023-09-04T19:48:25.965Z,16.20
2023-09-04T19:50:53.042Z,16.10
2023-09-04T19:53:20.044Z,16.00
2023-09-04T19:55:46.976Z,16.00
2023-09-04T19:58:13.953Z,16.00
2023-09-04T20:00:40.833Z,16.00
2023-09-04T20:03:07.923Z,16.00
2023-09-04T20:05:34.868Z,16.00
2023-09-04T20:08:01.767Z,15.90
2023-09-04T20:10:28.714Z,15.90
2023-09-04T20:12:55.639Z,15.80
2023-09-04T20:15:22.597Z,15.70
2023-09-04T20:17:49.999Z,15.80
2023-09-04T20:20:16.926Z,15.70
2023-09-04T20:22:43.801Z,15.70
2023-09-04T20:25:10.683Z,15.70
2023-09-04T20:27:37.617Z,15.60
2023-09-04T20:30:04.752Z,15.60
2023-09-04T20:32:31.745Z,15.60
2023-09-04T20:34:58.715Z,15.60
2023-09-04T20:37:25.643Z,15.40
2023-09-04T20:39:52.622Z,15.40
2023-09-04T20:42:19.486Z,15.40
2023-09-04T20:44:46.424Z,15.30
2023-09-04T20:47:13.336Z,15.20
2023-09-04T20:49:40.197Z,15.10
2023-09-04T20:52:08.041Z,15.20
2023-09-04T20:54:34.985Z,15.10
2023-09-04T20:57:01.928Z,15.10
2023-09-04T20:59:28.853Z,15.10
2023-09-04T21:01:55.796Z,15.10
2023-09-04T21:04:22.948Z,15.10
2023-09-04T21:06:49.912Z,15.10
2023-09-04T21:09:16.792Z,15.00
2023-09-04T21:11:43.665Z,15.10
2023-09-04T21:14:10.540Z,15.00
2023-09-04T21:16:37.495Z,15.00
2023-09-04T21:19:04.515Z,15.00
2023-09-04T21:21:31.382Z,15.00
2023-09-04T21:23:58.293Z,15.00
2023-09-04T21:26:25.196Z,15.00
2023-09-04T21:28:52.080Z,14.90
2023-09-04T21:31:18.991Z,15.00
2023-09-04T21:33:46.013Z,15.00
2023-09-04T21:36:12.909Z,14.90
2023-09-04T21:38:39.786Z,14.90
2023-09-04T21:41:06.722Z,15.00
2023-09-04T21:43:33.673Z,15.00
2023-09-04T21:46:00.599Z,14.90
2023-09-04T21:48:27.517Z,14.90
2023-09-04T21:50:57.918Z,14.80
2023-09-04T21:53:25.076Z,14.80
2023-09-04T21:55:52.145Z,14.80
2023-09-04T21:58:19.070Z,14.90
2023-09-04T22:00:45.984Z,14.90
2023-09-04T22:03:12.941Z,14.80
2023-09-04T22:05:39.892Z,14.80
2023-09-04T22:08:06.783Z,14.70
2023-09-04T22:10:33.754Z,14.80
2023-09-04T22:13:00.677Z,14.80
2023-09-04T22:15:27.548Z,14.80
2023-09-04T22:17:54.511Z,14.80
2023-09-04T22:20:21.446Z,14.90
2023-09-04T22:22:48.311Z,15.00
2023-09-04T22:25:15.228Z,15.00
2023-09-04T22:27:42.133Z,15.00
2023-09-04T22:30:09.349Z,15.10
2023-09-04T22:32:36.372Z,15.20
2023-09-04T22:37:45.556Z,15.50
2023-09-04T22:40:13.152Z,15.60
2023-09-04T22:42:40.032Z,15.70
2023-09-04T22:45:07.264Z,15.80
2023-09-04T22:47:34.217Z,15.70
2023-09-04T22:50:01.135Z,15.70
2023-09-04T22:52:28.037Z,15.70
2023-09-04T22:54:55.003Z,15.70
2023-09-04T22:57:21.897Z,15.60
2023-09-04T22:59:48.796Z,15.50
2023-09-04T23:02:15.712Z,15.50
2023-09-04T23:04:42.642Z,15.60
2023-09-04T23:07:09.557Z,15.60
2023-09-04T23:09:36.468Z,15.70
2023-09-04T23:12:03.520Z,15.70
2023-09-04T23:14:30.388Z,15.80
2023-09-04T23:16:57.291Z,15.80
2023-09-04T23:19:24.191Z,15.60
2023-09-04T23:21:51.056Z,15.50
2023-09-04T23:24:17.969Z,15.50
2023-09-04T23:26:44.838Z,15.40
2023-09-04T23:29:13.404Z,15.40
2023-09-04T23:31:40.821Z,15.30
2023-09-04T23:34:07.710Z,15.30
2023-09-04T23:36:34.603Z,15.20
2023-09-04T23:39:01.473Z,15.20
2023-09-04T23:41:28.493Z,15.20
2023-09-04T23:43:55.387Z,15.30
2023-09-04T23:46:22.272Z,15.50
2023-09-04T23:48:49.201Z,15.60
2023-09-04T23:51:16.071Z,15.80
2023-09-04T23:53:42.953Z,15.80
2023-09-04T23:56:09.847Z,16.00
2023-09-04T23:58:36.715Z,16.10
